Time;durP1;ratioP1;P1;durP2;ratioP2;P2;SDS_P1;SDS_P2;PMS_P1;PMS_P2;Temp;Humidity;BMP_temperature;BMP_pressure;BME280_temperature;BME280_humidity;BME280_pressure;Samples;Min_cycle;Max_cycle;Signal;HPM_P1;HPM_P2
2022/02/21 00:00:42;;;;;;;8.38;1.30;;;;;;;5.82;100.00;96949.59;4757181;30;20042;-80
2022/02/21 00:03:08;;;;;;;9.55;1.40;;;;;;;5.56;100.00;96912.22;4773427;30;20050;-79
2022/02/21 00:05:37;;;;;;;10.30;1.27;;;;;;;5.87;100.00;96934.44;4757234;30;20027;-79
2022/02/21 00:08:02;;;;;;;8.15;1.20;;;;;;;5.80;100.00;96909.06;4779271;30;20066;-80
2022/02/21 00:10:28;;;;;;;11.45;1.20;;;;;;;5.93;100.00;96918.44;4771343;30;20439;-79
2022/02/21 00:12:53;;;;;;;7.80;1.10;;;;;;;5.94;100.00;96896.03;4771947;30;20416;-80
2022/02/21 00:15:23;;;;;;;7.97;0.80;;;;;;;5.91;100.00;96876.00;4772512;30;20051;-80
2022/02/21 00:17:50;;;;;;;8.70;1.00;;;;;;;5.95;100.00;96884.31;4772442;30;20077;-79
2022/02/21 00:20:15;;;;;;;6.10;0.93;;;;;;;5.95;100.00;96869.09;4772443;30;20040;-79
2022/02/21 00:22:41;;;;;;;10.70;0.88;;;;;;;5.93;100.00;96859.75;4772473;30;20034;-79
2022/02/21 00:25:07;;;;;;;6.43;1.00;;;;;;;5.95;100.00;96846.94;4771207;30;20047;-80
2022/02/21 00:27:32;;;;;;;9.18;0.90;;;;;;;5.96;100.00;96844.03;4757346;30;20660;-80
2022/02/21 00:29:57;;;;;;;6.28;1.00;;;;;;;5.98;100.00;96841.09;4772383;30;20111;-80
2022/02/21 00:32:23;;;;;;;10.27;1.10;;;;;;;5.98;100.00;96831.19;4773563;30;20459;-80
2022/02/21 00:34:48;;;;;;;10.40;1.13;;;;;;;5.93;100.00;96817.06;4775157;30;20023;-79
2022/02/21 00:37:13;;;;;;;11.45;1.27;;;;;;;5.95;100.00;96804.25;4757491;30;20371;-80
2022/02/21 00:39:39;;;;;;;8.48;1.10;;;;;;;6.01;100.00;96792.53;4782010;30;20042;-79
2022/02/21 00:42:05;;;;;;;6.65;1.00;;;;;;;5.87;100.00;96797.56;4799506;29;20055;-79
2022/02/21 00:44:30;;;;;;;5.13;1.00;;;;;;;5.78;100.00;96783.16;4784501;29;20060;-80
2022/02/21 00:46:56;;;;;;;11.05;1.30;;;;;;;5.77;100.00;96771.69;4770556;30;20072;-79
2022/02/21 00:49:22;;;;;;;10.43;1.08;;;;;;;5.72;100.00;96757.53;4775255;30;20122;-80
2022/02/21 00:51:47;;;;;;;15.93;1.42;;;;;;;5.76;100.00;96746.09;4761192;30;20035;-79
2022/02/21 00:54:12;;;;;;;13.38;1.23;;;;;;;5.77;100.00;96738.88;4776144;30;20070;-79
2022/02/21 00:56:38;;;;;;;13.85;1.80;;;;;;;5.75;100.00;96723.13;4783775;30;20032;-80
2022/02/21 00:59:03;;;;;;;12.02;1.20;;;;;;;5.78;100.00;96719.13;4776942;30;20123;-79
2022/02/21 01:01:29;;;;;;;11.80;1.20;;;;;;;5.70;100.00;96711.69;4763042;30;20092;-80
2022/02/21 01:03:54;;;;;;;7.13;1.40;;;;;;;5.75;100.00;96701.78;4771537;30;20360;-79
2022/02/21 01:06:19;;;;;;;9.98;1.23;;;;;;;5.69;100.00;96686.06;4771122;30;20443;-79
2022/02/21 01:08:45;;;;;;;13.23;1.50;;;;;;;5.78;100.00;96693.25;4741528;30;20039;-79
2022/02/21 01:11:12;;;;;;;8.82;1.25;;;;;;;5.75;100.00;96682.34;4769721;30;20036;-80
2022/02/21 01:13:37;;;;;;;15.70;1.42;;;;;;;5.78;100.00;96684.47;4771372;30;20032;-80
2022/02/21 01:16:03;;;;;;;11.45;1.10;;;;;;;5.79;100.00;96684.19;4755818;30;20096;-79
2022/02/21 01:18:29;;;;;;;10.20;1.23;;;;;;;5.76;100.00;96681.25;4774798;30;20100;-80
2022/02/21 01:20:54;;;;;;;8.65;0.93;;;;;;;5.80;100.00;96680.47;4773290;30;20036;-79
2022/02/21 01:23:20;;;;;;;5.38;0.77;;;;;;;5.81;100.00;96674.06;4770954;29;20051;-79
2022/02/21 01:25:46;;;;;;;9.30;0.88;;;;;;;5.81;100.00;96665.25;4769989;30;20462;-79
2022/02/21 01:28:11;;;;;;;11.32;1.20;;;;;;;5.78;100.00;96647.13;4771458;30;20074;-79
2022/02/21 01:30:37;;;;;;;11.05;1.10;;;;;;;5.80;100.00;96651.13;4756375;30;20036;-80
2022/02/21 01:33:02;;;;;;;11.25;1.30;;;;;;;5.76;100.00;96635.91;4770522;30;20325;-80
2022/02/21 01:35:27;;;;;;;13.02;1.40;;;;;;;5.74;100.00;96622.06;4768738;30;20051;-79
2022/02/21 01:37:53;;;;;;;5.50;1.23;;;;;;;5.79;100.00;96616.69;4770133;30;20124;-79
2022/02/21 01:40:20;;;;;;;13.75;1.15;;;;;;;5.74;100.00;96595.41;4753970;30;20054;-79
2022/02/21 01:42:46;;;;;;;9.45;1.30;;;;;;;5.62;100.00;96572.47;4773342;30;20031;-80
2022/02/21 01:45:11;;;;;;;9.00;1.02;;;;;;;5.78;100.00;96591.91;4770679;30;20042;-79
2022/02/21 01:47:37;;;;;;;7.45;1.30;;;;;;;5.63;100.00;96560.75;4754569;30;20094;-80
2022/02/21 01:50:03;;;;;;;7.78;1.13;;;;;;;5.82;100.00;96581.50;4771168;30;20458;-80
2022/02/21 01:52:28;;;;;;;10.57;1.35;;;;;;;5.81;100.00;96579.91;4770224;30;20043;-79
2022/02/21 01:54:54;;;;;;;12.43;1.27;;;;;;;5.65;100.00;96552.47;4789100;29;20035;-79
2022/02/21 01:57:19;;;;;;;14.27;1.00;;;;;;;5.78;100.00;96564.44;4758065;30;20044;-80
2022/02/21 01:59:45;;;;;;;11.68;1.42;;;;;;;5.62;100.00;96535.13;4752559;30;20418;-80
2022/02/21 02:02:11;;;;;;;8.30;1.05;;;;;;;5.74;100.00;96552.72;4764853;30;20031;-79
2022/02/21 02:04:38;;;;;;;13.32;1.50;;;;;;;5.64;100.00;96541.00;4769821;30;20436;-79
2022/02/21 02:07:06;;;;;;;10.07;1.10;;;;;;;5.73;100.00;96553.78;4769914;30;20032;-79
2022/02/21 02:09:32;;;;;;;12.35;1.10;;;;;;;5.63;100.00;96552.75;4770557;30;20520;-79
2022/02/21 02:11:57;;;;;;;11.30;1.45;;;;;;;5.56;100.00;96557.59;4769956;30;20067;-79
2022/02/21 02:14:32;;;;;;;16.17;1.40;;;;;;;5.54;100.00;96553.59;4768677;30;20032;-79
2022/02/21 02:17:03;;;;;;;16.00;1.50;;;;;;;5.47;100.00;96553.88;4769937;30;20036;-79
2022/02/21 02:19:29;;;;;;;19.38;1.65;;;;;;;5.41;100.00;96560.28;4772255;30;20486;-80
2022/02/21 02:21:56;;;;;;;15.77;2.10;;;;;;;5.25;100.00;96554.16;4765310;30;20032;-79
2022/02/21 02:24:23;;;;;;;55.50;3.20;;;;;;;5.24;100.00;96563.22;4769557;30;20039;-79
2022/02/21 02:26:52;;;;;;;42.78;3.30;;;;;;;4.91;100.00;96512.13;4768138;30;20138;-80
2022/02/21 02:29:18;;;;;;;19.25;2.58;;;;;;;4.89;100.00;96506.25;4778887;30;20032;-80
2022/02/21 02:31:43;;;;;;;20.55;2.38;;;;;;;4.93;100.00;96522.50;4768884;30;20459;-79
2022/02/21 02:34:09;;;;;;;7.85;1.23;;;;;;;4.99;100.00;96549.94;4753554;30;20090;-79
2022/02/21 02:36:34;;;;;;;11.25;2.05;;;;;;;4.93;100.00;96554.44;4770010;30;20047;-79
2022/02/21 02:38:59;;;;;;;10.55;1.10;;;;;;;4.87;100.00;96559.00;4768899;30;20043;-79
2022/02/21 02:41:25;;;;;;;7.07;1.70;;;;;;;4.77;100.00;96550.19;4767559;30;20039;-79
2022/02/21 02:43:51;;;;;;;23.27;2.00;;;;;;;4.54;100.00;96528.38;4754560;30;20028;-79
2022/02/21 02:46:16;;;;;;;5.03;1.08;;;;;;;4.59;100.00;96548.84;4755886;30;20096;-79
2022/02/21 02:48:43;;;;;;;5.68;0.70;;;;;;;4.45;100.00;96564.56;4758951;30;20071;-80
2022/02/21 02:51:08;;;;;;;7.03;0.82;;;;;;;4.24;100.00;96556.53;4775177;30;20051;-79
2022/02/21 02:53:35;;;;;;;7.68;0.82;;;;;;;4.13;100.00;96562.88;4757042;30;20035;-79
2022/02/21 02:56:00;;;;;;;4.35;0.73;;;;;;;3.93;100.00;96533.56;4773174;29;20044;-79
2022/02/21 02:58:26;;;;;;;9.02;0.80;;;;;;;3.95;100.00;96540.22;4772099;30;20036;-79
2022/02/21 03:00:52;;;;;;;3.97;0.68;;;;;;;4.01;100.00;96549.03;4772499;30;20055;-79
2022/02/21 03:03:18;;;;;;;5.35;0.75;;;;;;;4.04;100.00;96566.28;4772663;30;20555;-79
2022/02/21 03:05:43;;;;;;;9.15;0.90;;;;;;;4.04;100.00;96553.81;4772149;30;20036;-79
2022/02/21 03:08:08;;;;;;;7.72;0.65;;;;;;;4.09;100.00;96553.03;4785668;29;20095;-79
2022/02/21 03:10:34;;;;;;;6.03;0.80;;;;;;;4.07;100.00;96553.28;4780507;30;20036;-78
2022/02/21 03:12:59;;;;;;;5.53;0.65;;;;;;;4.16;100.00;96573.00;4771962;30;20036;-78
2022/02/21 03:15:26;;;;;;;7.25;1.00;;;;;;;4.12;100.00;96569.25;4744257;30;20066;-79
2022/02/21 03:17:52;;;;;;;6.57;0.80;;;;;;;3.73;100.00;96495.19;4759189;30;20100;-78
2022/02/21 03:20:17;;;;;;;7.35;1.10;;;;;;;4.09;100.00;96553.03;4770857;30;20110;-78
2022/02/21 03:22:44;;;;;;;10.88;1.05;;;;;;;4.05;100.00;96554.63;4741803;30;20046;-78
2022/02/21 03:25:12;;;;;;;14.00;1.13;;;;;;;4.06;100.00;96557.00;4786552;29;20050;-78
2022/02/21 03:27:43;;;;;;;10.18;1.33;;;;;;;3.93;100.00;96546.84;4771831;30;20040;-78
2022/02/21 03:30:11;;;;;;;9.52;0.98;;;;;;;4.01;100.00;96559.66;4770865;30;20459;-79
2022/02/21 03:32:37;;;;;;;6.13;0.70;;;;;;;4.03;100.00;96556.72;4773343;30;20039;-78
2022/02/21 03:35:04;;;;;;;5.53;0.70;;;;;;;3.89;100.00;96546.56;4768332;30;20028;-78
2022/02/21 03:37:30;;;;;;;5.25;0.65;;;;;;;4.03;100.00;96568.16;4756147;30;20370;-78
2022/02/21 03:39:55;;;;;;;12.00;0.60;;;;;;;3.90;100.00;96542.06;4778032;30;20036;-78
2022/02/21 03:42:21;;;;;;;6.15;0.80;;;;;;;4.06;100.00;96569.50;4773961;30;20116;-78
2022/02/21 03:44:46;;;;;;;8.88;0.80;;;;;;;3.71;100.00;96515.16;4774639;30;20036;-79
2022/02/21 03:47:11;;;;;;;6.03;0.80;;;;;;;4.02;100.00;96571.88;4754983;30;20124;-79
2022/02/21 03:49:37;;;;;;;8.20;0.73;;;;;;;4.02;100.00;96574.53;4778551;29;20119;-79
2022/02/21 03:52:02;;;;;;;7.72;0.70;;;;;;;3.81;100.00;96538.28;4756345;30;20467;-79
2022/02/21 03:54:28;;;;;;;4.78;0.80;;;;;;;4.02;100.00;96571.88;4770989;30;20035;-79
2022/02/21 03:56:53;;;;;;;4.88;0.85;;;;;;;4.06;100.00;96578.28;4769078;30;20126;-79
2022/02/21 03:59:18;;;;;;;7.30;1.10;;;;;;;4.05;100.00;96575.91;4759896;30;20379;-80
2022/02/21 04:01:44;;;;;;;6.97;0.70;;;;;;;4.00;100.00;96574.00;4769999;30;20082;-79
2022/02/21 04:04:09;;;;;;;10.90;1.02;;;;;;;4.01;100.00;96572.97;4755696;30;20134;-80
2022/02/21 04:06:34;;;;;;;3.33;0.47;;;;;;;4.02;100.00;96582.53;4757023;30;20043;-79
2022/02/21 04:09:00;;;;;;;7.55;1.45;;;;;;;3.88;100.00;96560.94;4741462;30;20097;-79
2022/02/21 04:11:25;;;;;;;8.88;1.20;;;;;;;3.86;100.00;96562.25;4755411;30;20043;-79
2022/02/21 04:13:50;;;;;;;6.35;0.90;;;;;;;3.81;100.00;96559.56;4771050;30;20044;-79
2022/02/21 04:16:16;;;;;;;7.72;0.90;;;;;;;3.84;100.00;96564.34;4769956;30;20057;-79
2022/02/21 04:18:41;;;;;;;10.23;1.00;;;;;;;3.83;100.00;96562.78;4787430;30;20023;-80
2022/02/21 04:21:07;;;;;;;8.07;0.90;;;;;;;3.83;100.00;96562.78;4778039;29;20047;-79
2022/02/21 04:23:32;;;;;;;9.82;0.80;;;;;;;3.80;100.00;96568.59;4772711;30;20051;-79
2022/02/21 04:25:57;;;;;;;9.23;0.90;;;;;;;3.83;100.00;96568.09;4771447;30;20467;-79
2022/02/21 04:28:23;;;;;;;13.73;1.10;;;;;;;3.86;100.00;96570.22;4771854;30;20080;-80
2022/02/21 04:30:48;;;;;;;13.05;1.20;;;;;;;3.72;100.00;96549.44;4769630;30;20051;-78
2022/02/21 04:33:15;;;;;;;8.00;1.13;;;;;;;3.92;100.00;96574.50;4755940;30;20040;-79
2022/02/21 04:35:40;;;;;;;11.90;1.30;;;;;;;3.93;100.00;96570.78;4768338;30;20032;-79
2022/02/21 04:38:06;;;;;;;15.15;1.00;;;;;;;3.97;100.00;96574.50;4770935;30;20039;-79
2022/02/21 04:40:31;;;;;;;7.38;0.80;;;;;;;3.89;100.00;96551.91;4769850;30;20101;-79
2022/02/21 04:42:57;;;;;;;9.90;0.77;;;;;;;4.00;100.00;96566.03;4753014;30;20075;-79
2022/02/21 04:45:23;;;;;;;5.47;0.70;;;;;;;3.96;100.00;96555.09;4770782;30;20066;-79
2022/02/21 04:47:50;;;;;;;15.15;1.02;;;;;;;4.05;100.00;96567.91;4776607;30;20070;-79
2022/02/21 04:50:16;;;;;;;8.68;0.80;;;;;;;4.02;100.00;96547.16;4774332;30;20036;-79
2022/02/21 04:52:41;;;;;;;9.90;1.08;;;;;;;4.19;100.00;96569.81;4770766;30;20065;-78
2022/02/21 04:55:09;;;;;;;7.93;1.23;;;;;;;4.05;100.00;96543.97;4755355;30;20051;-79
2022/02/21 04:57:34;;;;;;;7.18;0.70;;;;;;;4.20;100.00;96571.41;4756099;30;20070;-79
2022/02/21 05:00:00;;;;;;;8.95;1.20;;;;;;;4.19;100.00;96572.47;4771235;30;20033;-79
2022/02/21 05:02:25;;;;;;;12.57;1.27;;;;;;;4.23;100.00;96573.53;4769650;30;20023;-79
2022/02/21 05:04:52;;;;;;;15.63;1.30;;;;;;;4.33;100.00;96578.09;4773404;30;20064;-79
2022/02/21 05:07:18;;;;;;;16.10;1.63;;;;;;;4.24;100.00;96564.50;4756299;30;20441;-79
2022/02/21 05:09:44;;;;;;;8.10;0.90;;;;;;;4.38;100.00;96590.63;4771147;30;20043;-79
2022/02/21 05:12:11;;;;;;;15.40;1.30;;;;;;;4.29;100.00;96576.22;4770151;30;20036;-79
2022/02/21 05:14:37;;;;;;;15.35;1.45;;;;;;;4.27;100.00;96583.66;4771365;30;20036;-79
2022/02/21 05:17:04;;;;;;;16.70;1.42;;;;;;;4.27;100.00;96588.97;4769252;30;20122;-79
2022/02/21 05:19:30;;;;;;;13.25;1.98;;;;;;;4.28;100.00;96603.91;4770271;30;20059;-79
2022/02/21 05:21:56;;;;;;;13.65;1.42;;;;;;;4.16;100.00;96596.94;4740504;30;20078;-79
2022/02/21 05:24:21;;;;;;;15.45;1.48;;;;;;;4.02;100.00;96593.16;4754801;30;20048;-79
2022/02/21 05:26:47;;;;;;;12.25;1.48;;;;;;;3.96;100.00;96610.16;4771098;30;20035;-79
2022/02/21 05:29:12;;;;;;;12.70;1.48;;;;;;;3.92;100.00;96609.09;4781148;29;20023;-79
2022/02/21 05:31:38;;;;;;;16.73;1.27;;;;;;;3.85;100.00;96629.78;4779085;30;20032;-79
2022/02/21 05:34:03;;;;;;;7.53;0.80;;;;;;;3.81;100.00;96634.00;4754883;30;20065;-79
2022/02/21 05:36:28;;;;;;;11.75;0.98;;;;;;;3.64;100.00;96612.91;4769785;30;20447;-79
2022/02/21 05:38:55;;;;;;;9.23;1.35;;;;;;;3.70;100.00;96647.25;4768731;30;20039;-79
2022/02/21 05:41:20;;;;;;;10.40;1.20;;;;;;;3.62;100.00;96638.97;4772177;30;20036;-80
2022/02/21 05:43:45;;;;;;;14.48;1.48;;;;;;;3.54;100.00;96653.53;4771264;30;20443;-80
2022/02/21 05:46:11;;;;;;;10.88;1.52;;;;;;;3.51;100.00;96662.03;4773924;30;20083;-80
2022/02/21 05:48:36;;;;;;;10.80;1.58;;;;;;;3.43;100.00;96657.19;4773174;30;20391;-80
2022/02/21 05:51:02;;;;;;;9.98;1.38;;;;;;;3.38;100.00;96676.56;4770656;30;20467;-79
2022/02/21 05:53:27;;;;;;;12.88;1.30;;;;;;;3.41;100.00;96668.06;4754200;30;20046;-79
2022/02/21 05:55:53;;;;;;;9.35;1.50;;;;;;;3.17;100.00;96669.47;4775898;30;20055;-79
2022/02/21 05:58:18;;;;;;;17.90;1.70;;;;;;;3.17;100.00;96656.97;4775508;30;20035;-79
2022/02/21 06:00:46;;;;;;;8.55;1.00;;;;;;;3.12;100.00;96658.81;4740177;30;20423;-79
2022/02/21 06:03:11;;;;;;;13.05;1.50;;;;;;;3.21;100.00;96700.59;4769928;30;20032;-79
2022/02/21 06:05:36;;;;;;;11.70;2.05;;;;;;;3.13;100.00;96697.59;4769147;30;20067;-79
2022/02/21 06:08:02;;;;;;;12.02;1.27;;;;;;;2.92;100.00;96676.16;4767861;30;20074;-79
2022/02/21 06:10:27;;;;;;;11.63;1.75;;;;;;;2.89;100.00;96657.28;4757862;30;20040;-79
2022/02/21 06:12:53;;;;;;;12.07;1.50;;;;;;;3.01;100.00;96721.63;4769209;30;20028;-78
2022/02/21 06:15:18;;;;;;;9.07;1.17;;;;;;;2.69;100.00;96673.81;4768399;30;20044;-79
2022/02/21 06:17:44;;;;;;;15.02;1.75;;;;;;;2.91;100.00;96724.19;4754491;30;20055;-79
2022/02/21 06:20:10;;;;;;;13.02;1.75;;;;;;;2.97;100.00;96725.84;4755702;30;20049;-78
2022/02/21 06:22:35;;;;;;;11.32;1.60;;;;;;;2.93;100.00;96732.72;4775211;30;20475;-80
2022/02/21 06:25:00;;;;;;;12.82;1.63;;;;;;;2.89;100.00;96736.91;4773574;30;20069;-79
2022/02/21 06:27:27;;;;;;;15.20;2.20;;;;;;;2.51;100.00;96706.75;4773979;30;20039;-78
2022/02/21 06:29:53;;;;;;;14.10;2.40;;;;;;;2.65;100.00;96742.50;4759584;30;20077;-78
2022/02/21 06:32:18;;;;;;;10.43;2.00;;;;;;;2.68;100.00;96749.16;4771858;30;20024;-79
2022/02/21 06:34:46;;;;;;;16.33;2.75;;;;;;;2.51;100.00;96733.28;4776075;30;20040;-79
2022/02/21 06:37:11;;;;;;;15.43;2.60;;;;;;;2.44;100.00;96751.25;4775409;30;20093;-79
2022/02/21 06:39:37;;;;;;;17.95;3.25;;;;;;;2.55;100.00;96755.63;4786167;30;20019;-78
2022/02/21 06:42:02;;;;;;;15.80;2.55;;;;;;;2.49;100.00;96764.59;4767061;30;20067;-78
2022/02/21 06:44:28;;;;;;;9.90;2.13;;;;;;;2.38;100.00;96752.25;4759237;30;20051;-79
2022/02/21 06:46:53;;;;;;;12.07;2.45;;;;;;;2.35;100.00;96774.75;4760900;30;20112;-79
2022/02/21 06:49:18;;;;;;;10.93;2.20;;;;;;;2.34;100.00;96783.75;4773200;30;20057;-80
2022/02/21 06:51:44;;;;;;;16.20;3.13;;;;;;;2.33;100.00;96731.75;4775063;30;20047;-80
2022/02/21 06:54:09;;;;;;;14.35;2.38;;;;;;;2.43;100.00;96768.22;4775429;30;20036;-79
2022/02/21 06:56:36;;;;;;;13.07;2.90;;;;;;;2.04;100.00;96786.78;4775834;30;20158;-80
2022/02/21 06:59:01;;;;;;;16.08;2.70;;;;;;;2.30;100.00;96820.59;4774559;30;20463;-80
2022/02/21 07:01:27;;;;;;;14.45;2.05;;;;;;;2.10;100.00;96799.09;4774229;30;20071;-80
2022/02/21 07:03:54;;;;;;;17.02;3.10;;;;;;;2.23;100.00;96825.25;4770633;30;20452;-79
2022/02/21 07:06:21;;;;;;;10.02;1.92;;;;;;;2.24;100.00;96840.13;4782171;30;20031;-80
2022/02/21 07:08:47;;;;;;;17.80;3.05;;;;;;;2.17;100.00;96823.56;4776243;30;20055;-78
2022/02/21 07:11:12;;;;;;;9.48;1.98;;;;;;;2.19;100.00;96861.28;4774485;30;20100;-79
2022/02/21 07:13:38;;;;;;;17.60;3.10;;;;;;;2.14;100.00;96853.22;4771271;30;20039;-78
2022/02/21 07:16:03;;;;;;;11.65;2.25;;;;;;;2.08;100.00;96819.72;4770843;30;20047;-78
2022/02/21 07:18:29;;;;;;;12.15;2.03;;;;;;;2.15;100.00;96880.56;4773641;30;20051;-78
2022/02/21 07:20:54;;;;;;;11.88;1.92;;;;;;;2.03;100.00;96865.53;4744357;30;20565;-79
2022/02/21 07:23:20;;;;;;;9.20;2.35;;;;;;;2.04;100.00;96882.25;4773971;30;20035;-78
2022/02/21 07:25:45;;;;;;;16.30;2.97;;;;;;;2.16;100.00;96882.97;4773216;30;20066;-78
2022/02/21 07:28:12;;;;;;;12.27;2.40;;;;;;;2.13;100.00;96906.53;4773596;30;20119;-78
2022/02/21 07:30:37;;;;;;;10.88;2.05;;;;;;;1.94;100.00;96872.28;4774181;30;20059;-77
2022/02/21 07:33:03;;;;;;;12.05;2.22;;;;;;;1.96;100.00;96895.91;4771473;30;20492;-78
2022/02/21 07:35:28;;;;;;;10.82;2.00;;;;;;;2.22;100.00;96920.97;4772809;30;20032;-78
2022/02/21 07:37:54;;;;;;;12.07;2.25;;;;;;;2.15;100.00;96915.81;4773914;30;20038;-80
2022/02/21 07:40:20;;;;;;;14.63;2.65;;;;;;;2.14;100.00;96924.84;4776131;30;20169;-79
2022/02/21 07:42:52;;;;;;;14.63;2.53;;;;;;;2.10;100.00;96913.91;4775920;29;20078;-79
2022/02/21 07:45:19;;;;;;;8.15;2.05;;;;;;;1.95;100.00;96903.03;4786258;29;20038;-79
2022/02/21 07:47:58;;;;;;;15.32;2.33;;;;;;;2.07;100.00;96982.53;4771960;30;20189;-79
2022/02/21 07:50:27;;;;;;;10.50;1.98;;;;;;;1.99;100.00;96919.28;4773823;30;20125;-78
2022/02/21 07:52:55;;;;;;;11.70;2.10;;;;;;;2.14;100.00;96992.97;4772382;30;20043;-79
2022/02/21 07:55:20;;;;;;;15.00;1.85;;;;;;;2.11;100.00;96973.84;4780503;30;20143;-78
2022/02/21 07:57:46;;;;;;;14.95;2.42;;;;;;;2.08;100.00;96997.38;4773060;30;20677;-79
2022/02/21 08:00:13;;;;;;;12.75;1.95;;;;;;;1.97;100.00;96969.09;4770643;30;20059;-79
2022/02/21 08:02:40;;;;;;;7.65;1.55;;;;;;;2.02;100.00;97003.63;4771318;30;20024;-79
2022/02/21 08:05:07;;;;;;;11.77;2.50;;;;;;;1.79;100.00;96964.81;4777488;30;20548;-78
2022/02/21 08:07:33;;;;;;;16.02;1.85;;;;;;;1.82;100.00;96949.22;4773057;30;20032;-79
2022/02/21 08:09:58;;;;;;;8.35;2.00;;;;;;;1.95;100.00;97016.22;4772463;30;20050;-79
2022/02/21 08:12:24;;;;;;;13.23;2.92;;;;;;;1.95;100.00;96987.06;4769755;30;20031;-79
2022/02/21 08:14:49;;;;;;;8.55;2.08;;;;;;;1.86;100.00;96990.13;4757726;30;20126;-78
2022/02/21 08:17:14;;;;;;;7.07;1.50;;;;;;;1.94;100.00;97011.97;4760249;30;20070;-78
2022/02/21 08:19:40;;;;;;;7.43;1.40;;;;;;;1.81;100.00;97011.22;4773890;30;20028;-78
2022/02/21 08:22:05;;;;;;;9.02;1.88;;;;;;;1.91;100.00;97015.09;4771596;30;20043;-77
2022/02/21 08:24:31;;;;;;;10.05;2.15;;;;;;;1.96;100.00;97029.25;4771299;30;20498;-78
2022/02/21 08:26:57;;;;;;;9.38;1.90;;;;;;;2.10;100.00;97088.13;4775090;30;20114;-78
2022/02/21 08:29:22;;;;;;;12.40;2.53;;;;;;;2.06;100.00;97073.72;4770980;30;20035;-78
2022/02/21 08:31:48;;;;;;;13.38;2.20;;;;;;;2.10;100.00;97066.91;4769478;30;20050;-78
2022/02/21 08:34:18;;;;;;;7.88;2.03;;;;;;;1.95;100.00;97069.25;4756380;30;20052;-79
2022/02/21 08:36:43;;;;;;;9.80;2.55;;;;;;;1.97;100.00;97062.69;4756488;30;20036;-78
2022/02/21 08:39:09;;;;;;;11.00;2.20;;;;;;;1.99;100.00;97088.97;4770983;30;20057;-79
2022/02/21 08:41:34;;;;;;;12.52;2.58;;;;;;;1.96;100.00;97086.78;4752937;30;20039;-79
2022/02/21 08:43:59;;;;;;;14.52;2.55;;;;;;;1.94;100.00;97087.00;4773576;30;20414;-78
2022/02/21 08:46:25;;;;;;;10.82;2.55;;;;;;;1.76;100.00;97082.69;4770284;30;20043;-79
2022/02/21 08:48:50;;;;;;;8.63;2.20;;;;;;;1.91;100.00;97102.59;4772328;30;20075;-78
2022/02/21 08:51:16;;;;;;;9.98;1.70;;;;;;;1.96;100.00;97106.16;4769366;30;20052;-79
2022/02/21 08:53:41;;;;;;;13.32;2.88;;;;;;;1.83;100.00;97132.91;4760193;30;20420;-78
2022/02/21 08:56:07;;;;;;;11.68;2.35;;;;;;;1.70;100.00;97102.16;4772441;30;20047;-78
2022/02/21 08:58:32;;;;;;;15.02;2.95;;;;;;;1.79;100.00;97119.34;4775044;30;20038;-79
2022/02/21 09:00:58;;;;;;;16.73;2.65;;;;;;;1.82;100.00;97113.56;4774735;30;20478;-79
2022/02/21 09:03:26;;;;;;;9.35;2.60;;;;;;;1.86;100.00;97113.91;4778174;30;20055;-79
2022/02/21 09:05:52;;;;;;;9.25;2.60;;;;;;;2.00;100.00;97173.56;4778721;29;20070;-78
2022/02/21 09:08:18;;;;;;;8.82;2.00;;;;;;;1.99;100.00;97177.28;4780826;30;20031;-79
2022/02/21 09:10:44;;;;;;;10.52;2.50;;;;;;;1.65;100.00;97078.19;4780073;30;20035;-79
2022/02/21 09:13:10;;;;;;;11.15;2.70;;;;;;;2.02;100.00;97146.81;4772864;30;20380;-79
2022/02/21 09:15:35;;;;;;;12.77;2.42;;;;;;;1.88;100.00;97144.41;4769274;30;20177;-78
2022/02/21 09:18:02;;;;;;;13.43;3.03;;;;;;;2.13;100.00;97203.53;4775392;30;20091;-79
2022/02/21 09:20:28;;;;;;;9.80;2.30;;;;;;;2.17;100.00;97196.72;4779152;30;20031;-79
2022/02/21 09:22:53;;;;;;;10.27;2.13;;;;;;;2.13;100.00;97214.94;4773180;30;20042;-78
2022/02/21 09:25:19;;;;;;;9.52;1.92;;;;;;;2.09;100.00;97209.31;4778958;29;20101;-78
2022/02/21 09:27:44;;;;;;;9.80;2.25;;;;;;;2.08;100.00;97196.25;4769247;30;20063;-78
2022/02/21 09:30:10;;;;;;;19.77;3.65;;;;;;;2.15;100.00;97223.47;4770646;30;20055;-78
2022/02/21 09:32:36;;;;;;;10.35;2.30;;;;;;;2.01;100.00;97248.63;4754456;30;20463;-78
2022/02/21 09:35:01;;;;;;;10.20;2.65;;;;;;;1.81;100.00;97196.75;4770882;30;20028;-79
2022/02/21 09:37:27;;;;;;;12.20;2.47;;;;;;;1.90;100.00;97222.94;4770348;30;20462;-79
2022/02/21 09:39:52;;;;;;;14.55;3.08;;;;;;;1.99;100.00;97258.66;4774504;30;20059;-79
2022/02/21 09:42:20;;;;;;;14.32;2.92;;;;;;;1.80;100.00;97240.22;4772946;30;20057;-79
2022/02/21 09:44:46;;;;;;;16.30;3.55;;;;;;;1.66;100.00;97236.19;4771657;30;20032;-79
2022/02/21 09:47:15;;;;;;;15.32;3.17;;;;;;;1.57;100.00;97279.94;4774177;30;20049;-79
2022/02/21 09:49:41;;;;;;;15.93;3.67;;;;;;;1.38;100.00;97269.41;4771462;30;20042;-80
2022/02/21 09:52:06;;;;;;;11.93;2.55;;;;;;;1.41;100.00;97299.94;4768126;30;20040;-80
2022/02/21 09:54:31;;;;;;;12.60;2.40;;;;;;;1.46;100.00;97288.66;4769634;30;20039;-82
2022/02/21 09:56:57;;;;;;;15.35;3.58;;;;;;;1.29;100.00;97236.38;4783175;30;20071;-81
2022/02/21 09:59:23;;;;;;;10.55;2.55;;;;;;;1.50;100.00;97316.34;4773093;30;20368;-81
2022/02/21 10:01:50;;;;;;;8.00;2.10;;;;;;;1.35;100.00;97248.66;4774157;29;20052;-81
2022/02/21 10:04:24;;;;;;;12.00;2.35;;;;;;;1.46;100.00;97304.56;4776381;30;20110;-82
2022/02/21 10:06:51;;;;;;;9.73;2.07;;;;;;;1.55;100.00;97324.41;4766262;30;20055;-80
2022/02/21 10:09:17;;;;;;;9.75;2.42;;;;;;;1.37;100.00;97290.84;4771001;30;20036;-80
2022/02/21 10:11:48;;;;;;;12.85;2.88;;;;;;;1.48;100.00;97303.31;4764714;30;20475;-81
2022/02/21 10:14:14;;;;;;;14.25;3.25;;;;;;;1.56;100.00;97273.84;4768441;30;20339;-80
2022/02/21 10:16:53;;;;;;;18.75;3.28;;;;;;;1.60;100.00;97317.38;4767760;30;20028;-79
2022/02/21 10:19:26;;;;;;;14.77;2.55;;;;;;;1.68;100.00;97329.50;4768738;30;20047;-81
2022/02/21 10:22:10;;;;;;;10.15;2.28;;;;;;;1.74;100.00;97341.84;4767451;30;20156;-80
2022/02/21 10:24:41;;;;;;;13.75;3.22;;;;;;;1.75;100.00;97387.72;4768210;30;20178;-80
2022/02/21 10:27:18;;;;;;;16.33;3.17;;;;;;;1.65;100.00;97382.94;4776473;29;20555;-80
2022/02/21 10:29:46;;;;;;;14.00;3.03;;;;;;;1.68;100.00;97366.59;4765660;30;20027;-80
2022/02/21 10:32:13;;;;;;;19.27;2.88;;;;;;;1.65;100.00;97372.34;4770825;30;20050;-80
2022/02/21 10:34:38;;;;;;;12.82;2.80;;;;;;;1.44;100.00;97354.31;4776886;30;20130;-81
2022/02/21 10:37:06;;;;;;;15.02;3.15;;;;;;;1.69;100.00;97421.25;4775383;30;20062;-81
2022/02/21 10:39:32;;;;;;;14.52;3.00;;;;;;;1.72;100.00;97420.75;4779002;30;20038;-80
2022/02/21 10:41:58;;;;;;;11.55;2.78;;;;;;;1.43;100.00;97379.22;4776883;30;20367;-80
2022/02/21 10:44:25;;;;;;;16.60;2.50;;;;;;;1.77;100.00;97433.34;4778685;30;20488;-80
2022/02/21 10:47:17;;;;;;;6.30;1.58;;;;;;;1.72;100.00;97404.06;4780218;29;20086;-81
2022/02/21 10:49:54;;;;;;;12.18;2.10;;;;;;;1.79;100.00;97421.50;4784845;29;20372;-80
2022/02/21 10:52:43;;;;;;;13.35;3.00;;;;;;;1.79;100.00;97436.59;4770359;29;20037;-79
2022/02/21 10:55:13;;;;;;;12.98;2.67;;;;;;;1.85;100.00;97457.72;4768550;30;20047;-80
2022/02/21 10:57:42;;;;;;;11.18;2.55;;;;;;;1.93;100.00;97429.25;4769903;30;20036;-80
2022/02/21 11:00:12;;;;;;;9.32;2.45;;;;;;;1.55;100.00;97409.19;4788398;29;20032;-80
2022/02/21 11:02:40;;;;;;;10.68;2.05;;;;;;;1.96;100.00;97415.56;4765241;30;20032;-79
2022/02/21 11:05:09;;;;;;;13.20;2.65;;;;;;;2.05;100.00;97436.22;4764359;30;20470;-81
2022/02/21 11:07:38;;;;;;;13.65;3.33;;;;;;;2.11;100.00;97474.25;4771693;30;20036;-81
2022/02/21 11:10:05;;;;;;;12.45;2.90;;;;;;;2.15;100.00;97477.28;4781333;29;20024;-80
2022/02/21 11:12:35;;;;;;;9.55;2.15;;;;;;;1.87;100.00;97449.53;4776548;30;20372;-80
2022/02/21 11:15:02;;;;;;;9.70;2.03;;;;;;;2.10;100.00;97478.75;4776396;30;20154;-78
2022/02/21 11:17:28;;;;;;;8.52;2.25;;;;;;;2.10;100.00;97459.41;4777759;30;20382;-78
2022/02/21 11:19:54;;;;;;;8.82;2.60;;;;;;;2.13;100.00;97503.22;4776987;30;20343;-80
2022/02/21 11:22:21;;;;;;;9.90;2.45;;;;;;;2.07;100.00;97435.97;4773708;30;20028;-79
2022/02/21 11:24:54;;;;;;;14.13;2.85;;;;;;;2.01;100.00;97488.06;4778035;30;20023;-78